createdAt,value
2023-05-10T00:02:04.172Z,7.83
2023-05-10T00:04:31.963Z,7.83
2023-05-10T00:06:59.903Z,7.80
2023-05-10T00:09:27.881Z,7.80
2023-05-10T00:11:55.898Z,7.78
2023-05-10T00:14:23.731Z,7.74
2023-05-10T00:16:51.667Z,7.72
2023-05-10T00:19:19.680Z,7.70
2023-05-10T00:21:47.632Z,7.68
2023-05-10T00:24:15.748Z,7.64
2023-05-10T00:26:43.542Z,7.64
2023-05-10T00:29:11.384Z,7.63
2023-05-10T00:31:39.277Z,7.61
2023-05-10T00:34:07.121Z,7.62
2023-05-10T00:36:34.994Z,7.62
2023-05-10T00:39:04.498Z,7.62
2023-05-10T00:41:33.778Z,7.62
2023-05-10T00:44:03.112Z,7.64
2023-05-10T00:46:31.902Z,7.65
2023-05-10T00:49:00.356Z,7.65
2023-05-10T00:51:28.491Z,7.65
2023-05-10T00:53:57.127Z,7.62
2023-05-10T00:56:26.316Z,7.59
2023-05-10T00:58:54.441Z,7.55
2023-05-10T01:01:22.574Z,7.50
2023-05-10T01:03:52.096Z,7.47
2023-05-10T01:06:19.944Z,7.44
2023-05-10T01:08:48.454Z,7.42
2023-05-10T01:11:16.330Z,7.42
2023-05-10T01:13:49.536Z,7.43
2023-05-10T01:16:17.838Z,7.42
2023-05-10T01:18:46.181Z,7.39
2023-05-10T01:21:51.796Z,7.37
2023-05-10T01:24:30.232Z,7.33
2023-05-10T01:27:16.342Z,7.30
2023-05-10T01:29:47.163Z,7.25
2023-05-10T01:32:33.357Z,7.20
2023-05-10T01:35:06.261Z,7.14
2023-05-10T01:37:58.290Z,7.08
2023-05-10T01:40:58.528Z,7.04
2023-05-10T01:43:32.158Z,7.00
2023-05-10T01:46:25.308Z,6.96
2023-05-10T01:48:56.871Z,6.92
2023-05-10T01:51:27.318Z,6.90
2023-05-10T01:54:01.778Z,6.88
2023-05-10T01:56:33.272Z,6.85
2023-05-10T01:59:06.857Z,6.83
2023-05-10T02:01:35.927Z,6.80
2023-05-10T02:04:05.886Z,6.78
2023-05-10T02:06:35.460Z,6.77
2023-05-10T02:09:04.299Z,6.75
2023-05-10T02:11:33.304Z,6.74
2023-05-10T02:14:02.267Z,6.72
2023-05-10T02:16:32.033Z,6.70
2023-05-10T02:19:02.552Z,6.69
2023-05-10T02:21:31.894Z,6.66
2023-05-10T02:24:01.651Z,6.58
2023-05-10T02:26:30.579Z,6.52
2023-05-10T02:28:59.702Z,6.48
2023-05-10T02:31:27.918Z,6.45
2023-05-10T02:33:58.113Z,6.42
2023-05-10T02:36:28.700Z,6.41
2023-05-10T02:38:57.900Z,6.37
2023-05-10T02:41:27.394Z,6.33
2023-05-10T02:44:00.363Z,6.34
2023-05-10T02:46:28.503Z,6.36
2023-05-10T02:48:58.079Z,6.34
2023-05-10T02:51:32.770Z,6.26
2023-05-10T02:54:10.549Z,6.19
2023-05-10T02:56:48.021Z,6.15
2023-05-10T02:59:16.444Z,6.14
2023-05-10T03:01:44.413Z,6.13
2023-05-10T03:04:12.478Z,6.13
2023-05-10T03:06:41.111Z,6.13
2023-05-10T03:09:10.554Z,6.09
2023-05-10T03:11:50.564Z,6.04
2023-05-10T03:14:37.028Z,6.00
2023-05-10T03:17:54.238Z,5.99
2023-05-10T03:20:47.108Z,5.95
2023-05-10T03:23:35.172Z,5.94
2023-05-10T03:26:05.930Z,5.91
2023-05-10T03:28:35.664Z,5.87
2023-05-10T03:31:06.056Z,5.86
2023-05-10T03:33:33.831Z,5.85
2023-05-10T03:36:01.741Z,5.84
2023-05-10T03:38:30.537Z,5.83
2023-05-10T03:40:58.707Z,5.84
2023-05-10T03:43:26.430Z,5.85
2023-05-10T03:45:54.863Z,5.86
2023-05-10T03:48:22.738Z,5.85
2023-05-10T03:50:51.849Z,5.85
2023-05-10T03:53:19.724Z,5.86
2023-05-10T03:55:47.728Z,5.87
2023-05-10T03:58:16.170Z,5.89
2023-05-10T04:00:46.978Z,5.93
2023-05-10T04:03:15.831Z,5.97
2023-05-10T04:05:43.724Z,5.99
2023-05-10T04:08:11.635Z,6.04
2023-05-10T04:10:39.583Z,6.09
2023-05-10T04:13:07.602Z,6.15
2023-05-10T04:15:36.535Z,6.17
2023-05-10T04:18:08.656Z,6.19
2023-05-10T04:20:37.017Z,6.19
2023-05-10T04:23:04.887Z,6.21
2023-05-10T04:25:36.279Z,6.24
2023-05-10T04:28:04.359Z,6.28
2023-05-10T04:30:32.308Z,6.30
2023-05-10T04:33:01.140Z,6.33
2023-05-10T04:35:29.720Z,6.36
2023-05-10T04:37:57.660Z,6.38
2023-05-10T04:40:26.476Z,6.40
2023-05-10T04:42:55.498Z,6.44
2023-05-10T04:45:23.398Z,6.49
2023-05-10T04:47:51.355Z,6.54
2023-05-10T04:50:19.397Z,6.60
2023-05-10T04:52:47.341Z,6.67
2023-05-10T04:55:15.473Z,6.75
2023-05-10T04:57:43.510Z,6.83
2023-05-10T05:00:12.492Z,6.92
2023-05-10T05:02:45.648Z,6.99
2023-05-10T05:05:14.270Z,7.09
2023-05-10T05:07:42.254Z,7.17
2023-05-10T05:10:10.502Z,7.25
2023-05-10T05:12:38.602Z,7.32
2023-05-10T05:15:09.625Z,7.40
2023-05-10T05:17:37.937Z,7.47
2023-05-10T05:20:06.697Z,7.55
2023-05-10T05:22:34.484Z,7.64
2023-05-10T05:25:04.844Z,7.72
2023-05-10T05:27:33.224Z,7.85
2023-05-10T05:30:01.146Z,7.98
2023-05-10T05:32:29.044Z,8.12
2023-05-10T05:35:00.312Z,8.25
2023-05-10T05:37:28.704Z,8.39
2023-05-10T05:39:56.621Z,8.52
2023-05-10T05:42:24.639Z,8.64
2023-05-10T05:44:52.618Z,8.74
2023-05-10T05:47:20.543Z,8.84
2023-05-10T05:49:48.475Z,8.93
2023-05-10T05:52:17.537Z,9.03
2023-05-10T05:54:46.699Z,9.12
2023-05-10T05:57:16.574Z,9.21
2023-05-10T05:59:45.118Z,9.28
2023-05-10T06:02:12.981Z,9.35
2023-05-10T06:04:42.766Z,9.45
2023-05-10T06:07:13.960Z,9.53
2023-05-10T06:09:41.889Z,9.61
2023-05-10T06:12:09.801Z,9.70
2023-05-10T06:14:37.700Z,9.79
2023-05-10T06:17:06.244Z,9.87
2023-05-10T06:19:34.253Z,9.96
2023-05-10T06:22:02.094Z,10.06
2023-05-10T06:24:30.113Z,10.15
2023-05-10T06:26:59.388Z,10.26
2023-05-10T06:29:27.484Z,10.35
2023-05-10T06:31:55.481Z,10.43
2023-05-10T06:34:23.477Z,10.50
2023-05-10T06:36:51.295Z,10.56
2023-05-10T06:39:19.234Z,10.64
2023-05-10T06:41:47.120Z,10.70
2023-05-10T06:44:15.159Z,10.77
2023-05-10T06:46:43.140Z,10.81
2023-05-10T06:49:11.198Z,10.84
2023-05-10T06:51:39.222Z,10.88
2023-05-10T06:54:07.956Z,10.93
2023-05-10T06:56:36.327Z,10.97
2023-05-10T06:59:04.267Z,11.03
2023-05-10T07:01:32.540Z,11.11
2023-05-10T07:04:00.559Z,11.19
2023-05-10T07:06:33.263Z,11.27
2023-05-10T07:09:01.957Z,11.36
2023-05-10T07:11:30.213Z,11.45
2023-05-10T07:13:58.141Z,11.58
2023-05-10T07:16:26.050Z,11.69
2023-05-10T07:18:54.690Z,11.80
2023-05-10T07:21:25.168Z,11.91
2023-05-10T07:23:53.239Z,11.99
2023-05-10T07:26:21.921Z,12.08
2023-05-10T07:28:49.843Z,12.18
2023-05-10T07:31:17.831Z,12.28
2023-05-10T07:33:45.667Z,12.38
2023-05-10T07:36:13.748Z,12.48
2023-05-10T07:38:41.825Z,12.62
2023-05-10T07:41:09.726Z,12.72
2023-05-10T07:43:37.572Z,12.83
2023-05-10T07:46:06.294Z,12.93
2023-05-10T07:48:34.316Z,13.02
2023-05-10T07:51:02.128Z,13.11
2023-05-10T07:53:29.922Z,13.23
2023-05-10T07:55:59.421Z,13.36
2023-05-10T07:58:27.453Z,13.51
2023-05-10T08:00:55.896Z,13.68
2023-05-10T08:03:23.797Z,13.84
2023-05-10T08:05:51.814Z,13.95
2023-05-10T08:08:21.001Z,14.05
2023-05-10T08:10:48.831Z,14.16
2023-05-10T08:13:16.771Z,14.29
2023-05-10T08:15:45.388Z,14.42
2023-05-10T08:18:13.242Z,14.56
2023-05-10T08:20:42.937Z,14.71
2023-05-10T08:23:11.426Z,14.84
2023-05-10T08:25:39.413Z,14.96
2023-05-10T08:28:08.063Z,15.05
2023-05-10T08:30:36.666Z,15.13
2023-05-10T08:33:04.590Z,15.23
2023-05-10T08:35:34.227Z,15.32
2023-05-10T08:38:02.612Z,15.41
2023-05-10T08:40:30.532Z,15.50
2023-05-10T08:43:07.587Z,15.57
2023-05-10T08:45:41.250Z,15.66
2023-05-10T08:48:12.903Z,15.74
2023-05-10T08:50:43.013Z,15.85
2023-05-10T08:53:13.437Z,15.99
2023-05-10T08:55:44.443Z,16.15
2023-05-10T08:58:12.392Z,16.28
2023-05-10T09:00:41.095Z,16.37
2023-05-10T09:03:09.224Z,16.51
2023-05-10T09:05:38.235Z,16.66
2023-05-10T09:08:07.669Z,16.81
2023-05-10T09:10:36.206Z,16.95
2023-05-10T09:13:06.106Z,17.11
2023-05-10T09:15:33.974Z,17.26
2023-05-10T09:18:03.500Z,17.36
2023-05-10T11:32:37.489Z,20.78
2023-05-10T11:35:12.952Z,20.79
2023-05-10T11:37:44.620Z,20.61
2023-05-10T11:40:13.184Z,20.33
2023-05-10T11:42:41.419Z,20.02
2023-05-10T11:45:10.094Z,19.75
2023-05-10T11:47:38.181Z,19.62
2023-05-10T11:50:07.110Z,19.69
2023-05-10T11:52:39.285Z,19.85
2023-05-10T11:55:07.724Z,20.01
2023-05-10T11:57:36.656Z,20.18
2023-05-10T12:00:06.547Z,20.41
2023-05-10T12:02:34.998Z,20.61
2023-05-10T12:05:05.954Z,20.71
2023-05-10T12:07:33.940Z,20.69
2023-05-10T12:10:10.723Z,20.59
2023-05-10T12:12:48.426Z,20.47
2023-05-10T12:15:24.701Z,20.33
2023-05-10T12:17:52.754Z,20.22
2023-05-10T12:20:23.363Z,20.10
2023-05-10T12:22:54.165Z,20.00
2023-05-10T12:25:24.264Z,19.94
2023-05-10T12:27:54.229Z,19.90
2023-05-10T12:30:26.346Z,19.90
2023-05-10T12:32:55.804Z,19.89
2023-05-10T12:35:25.098Z,19.79
2023-05-10T12:37:53.000Z,19.62
2023-05-10T12:40:21.213Z,19.52
2023-05-10T12:42:49.884Z,19.46
2023-05-10T12:45:19.209Z,19.43
2023-05-10T12:47:47.400Z,19.35
2023-05-10T12:50:15.951Z,19.21
2023-05-10T12:52:44.150Z,19.11
2023-05-10T12:55:11.991Z,19.00
2023-05-10T12:57:42.592Z,18.88
2023-05-10T13:00:11.072Z,18.69
2023-05-10T13:02:39.097Z,18.51
2023-05-10T13:05:07.470Z,18.39
2023-05-10T13:07:36.170Z,18.32
2023-05-10T13:10:04.419Z,18.32
2023-05-10T13:12:32.366Z,18.38
2023-05-10T13:15:00.436Z,18.46
2023-05-10T13:17:28.477Z,18.54
2023-05-10T13:19:56.377Z,18.58
2023-05-10T13:22:36.300Z,18.61
2023-05-10T13:25:07.833Z,18.66
2023-05-10T13:27:35.779Z,18.63
2023-05-10T13:30:05.067Z,18.59
2023-05-10T13:32:33.719Z,18.57
2023-05-10T13:35:02.376Z,18.61
2023-05-10T13:37:36.578Z,18.70
2023-05-10T13:40:07.901Z,18.76
2023-05-10T13:42:36.926Z,18.72
2023-05-10T13:45:07.177Z,18.63
2023-05-10T13:47:35.354Z,18.51
2023-05-10T13:50:04.811Z,18.37
2023-05-10T13:52:36.136Z,18.24
2023-05-10T13:55:04.750Z,18.22
2023-05-10T13:57:32.817Z,18.21
2023-05-10T14:00:00.881Z,18.17
2023-05-10T14:02:28.953Z,18.11
2023-05-10T14:04:57.173Z,18.06
2023-05-10T14:07:25.286Z,18.08
2023-05-10T14:09:53.483Z,18.12
2023-05-10T14:12:21.754Z,18.12
2023-05-10T14:14:49.942Z,18.14
2023-05-10T14:17:17.768Z,18.19
2023-05-10T14:19:45.891Z,18.25
2023-05-10T14:22:13.617Z,18.32
2023-05-10T14:24:41.788Z,18.40
2023-05-10T14:27:09.823Z,18.42
2023-05-10T14:29:37.797Z,18.44
2023-05-10T14:32:05.900Z,18.47
2023-05-10T14:34:34.303Z,18.47
2023-05-10T14:37:02.332Z,18.49
2023-05-10T14:39:31.182Z,18.52
2023-05-10T14:41:59.554Z,18.52
2023-05-10T14:44:27.444Z,18.53
2023-05-10T14:46:56.172Z,18.55
2023-05-10T14:49:26.536Z,18.57
2023-05-10T14:51:54.374Z,18.56
2023-05-10T14:54:22.397Z,18.54
2023-05-10T14:56:51.030Z,18.48
2023-05-10T14:59:19.081Z,18.35
2023-05-10T15:01:47.349Z,18.21
2023-05-10T15:04:17.370Z,18.13
2023-05-10T15:06:45.982Z,18.28
2023-05-10T15:09:13.925Z,18.53
2023-05-10T15:11:41.893Z,18.86
2023-05-10T15:14:09.745Z,19.13
2023-05-10T15:16:38.640Z,19.32
2023-05-10T15:19:06.925Z,19.39
2023-05-10T15:21:39.810Z,19.57
2023-05-10T15:24:08.600Z,20.00
2023-05-10T15:26:36.571Z,20.61
2023-05-10T15:29:04.573Z,21.14
2023-05-10T15:31:36.235Z,21.29
2023-05-10T15:34:04.257Z,21.44
2023-05-10T15:36:33.138Z,21.56
2023-05-10T15:39:01.295Z,21.53
2023-05-10T15:41:29.890Z,21.39
2023-05-10T15:44:00.619Z,21.27
2023-05-10T15:46:29.947Z,21.17
2023-05-10T15:48:59.594Z,21.00
2023-05-10T15:51:27.652Z,20.76
2023-05-10T15:54:06.618Z,20.49
2023-05-10T15:56:36.663Z,20.23
2023-05-10T15:59:06.238Z,20.00
2023-05-10T16:01:36.855Z,19.79
2023-05-10T16:04:04.710Z,19.61
2023-05-10T16:06:32.825Z,19.50
2023-05-10T16:09:00.742Z,19.41
2023-05-10T16:11:29.006Z,19.35
2023-05-10T16:13:56.952Z,19.24
2023-05-10T16:16:25.046Z,19.08
2023-05-10T16:18:53.353Z,18.91
2023-05-10T16:21:21.640Z,18.80
2023-05-10T16:23:49.896Z,18.70
2023-05-10T16:26:17.894Z,18.64
2023-05-10T16:28:45.873Z,18.56
2023-05-10T16:31:13.914Z,18.46
2023-05-10T16:33:41.735Z,18.41
2023-05-10T16:36:09.618Z,18.45
2023-05-10T16:38:37.762Z,18.54
2023-05-10T16:41:06.810Z,18.66
2023-05-10T16:43:34.751Z,18.66
2023-05-10T16:46:02.827Z,18.57
2023-05-10T16:48:30.922Z,18.42
2023-05-10T16:50:58.919Z,18.23
2023-05-10T16:53:27.025Z,18.01
2023-05-10T16:55:54.805Z,17.79
2023-05-10T16:58:22.914Z,17.56
2023-05-10T17:00:51.137Z,17.34
2023-05-10T17:03:19.193Z,17.12
2023-05-10T17:05:47.142Z,16.91
2023-05-10T17:08:16.332Z,16.72
2023-05-10T17:10:44.205Z,16.54
2023-05-10T17:13:14.906Z,16.35
2023-05-10T17:15:46.981Z,16.19
2023-05-10T17:18:14.975Z,16.04
2023-05-10T17:20:45.149Z,15.89
2023-05-10T17:23:13.300Z,15.76
2023-05-10T17:25:42.077Z,15.62
2023-05-10T17:28:09.988Z,15.50
2023-05-10T17:30:38.008Z,15.39
2023-05-10T17:33:05.955Z,15.27
2023-05-10T17:35:34.203Z,15.15
2023-05-10T17:38:04.341Z,15.04
2023-05-10T17:40:32.344Z,14.94
2023-05-10T17:43:00.534Z,14.83
2023-05-10T17:45:28.547Z,14.70
2023-05-10T17:47:56.521Z,14.58
2023-05-10T17:50:24.425Z,14.47
2023-05-10T17:52:52.339Z,14.34
2023-05-10T17:55:20.445Z,14.24
2023-05-10T17:57:49.944Z,14.14
2023-05-10T18:00:20.578Z,14.03
2023-05-10T18:02:48.427Z,13.93
2023-05-10T18:05:18.968Z,13.83
2023-05-10T18:07:47.310Z,13.74
2023-05-10T18:10:15.199Z,13.63
2023-05-10T18:12:43.542Z,13.52
2023-05-10T18:15:11.691Z,13.43
2023-05-10T18:17:39.635Z,13.34
2023-05-10T18:20:08.981Z,13.25
2023-05-10T18:22:37.123Z,13.17
2023-05-10T18:25:05.418Z,13.09
2023-05-10T18:27:33.427Z,13.00
2023-05-10T18:30:01.531Z,12.90
2023-05-10T18:32:29.899Z,12.82
2023-05-10T18:34:58.172Z,12.73
2023-05-10T18:37:26.371Z,12.63
2023-05-10T18:39:54.273Z,12.54
2023-05-10T18:42:22.132Z,12.47
2023-05-10T18:44:50.062Z,12.39
2023-05-10T18:47:18.120Z,12.31
2023-05-10T18:49:46.353Z,12.23
2023-05-10T18:52:16.079Z,12.18
2023-05-10T18:54:43.966Z,12.12
2023-05-10T18:57:12.753Z,12.07
2023-05-10T18:59:42.139Z,12.00
2023-05-10T19:02:10.404Z,11.93
2023-05-10T19:04:38.444Z,11.87
2023-05-10T19:07:06.351Z,11.83
2023-05-10T19:09:34.218Z,11.80
2023-05-10T19:12:02.047Z,11.75
2023-05-10T19:14:30.062Z,11.68
2023-05-10T19:16:57.931Z,11.61
2023-05-10T19:19:26.305Z,11.55
2023-05-10T19:21:55.089Z,11.50
2023-05-10T19:24:25.762Z,11.44
2023-05-10T19:26:55.313Z,11.38
2023-05-10T19:29:25.964Z,11.31
2023-05-10T19:31:54.446Z,11.24
2023-05-10T19:34:24.584Z,11.20
2023-05-10T19:36:52.602Z,11.14
2023-05-10T19:39:20.757Z,11.06
2023-05-10T19:41:50.333Z,11.02
2023-05-10T19:44:18.406Z,10.97
2023-05-10T19:46:46.458Z,10.93
2023-05-10T19:49:15.575Z,10.90
2023-05-10T19:51:54.323Z,10.86
2023-05-10T19:54:22.451Z,10.83
2023-05-10T19:56:50.426Z,10.80
2023-05-10T19:59:18.299Z,10.78
2023-05-10T20:01:46.330Z,10.75
2023-05-10T20:04:14.334Z,10.72
2023-05-10T20:06:42.263Z,10.67
2023-05-10T20:09:10.356Z,10.61
2023-05-10T20:11:38.226Z,10.55
2023-05-10T20:14:06.172Z,10.48
2023-05-10T20:16:34.168Z,10.47
2023-05-10T20:19:02.939Z,10.45
2023-05-10T20:21:30.785Z,10.43
2023-05-10T20:24:02.322Z,10.42
2023-05-10T20:26:31.081Z,10.38
2023-05-10T20:29:00.240Z,10.37
2023-05-10T20:31:30.236Z,10.32
2023-05-10T20:33:58.277Z,10.29
2023-05-10T20:36:27.068Z,10.27
2023-05-10T20:38:55.052Z,10.24
2023-05-10T20:41:26.139Z,10.20
2023-05-10T20:43:56.824Z,10.14
2023-05-10T20:46:27.197Z,10.07
2023-05-10T20:48:55.290Z,10.00
2023-05-10T20:51:23.326Z,9.93
2023-05-10T20:53:51.235Z,9.87
2023-05-10T20:56:19.685Z,9.85
2023-05-10T20:58:47.579Z,9.84
2023-05-10T21:01:15.577Z,9.82
2023-05-10T21:03:44.843Z,9.79
2023-05-10T21:06:12.887Z,9.75
2023-05-10T21:08:41.040Z,9.73
2023-05-10T21:11:09.603Z,9.68
2023-05-10T21:13:37.504Z,9.64
2023-05-10T21:16:05.562Z,9.60
2023-05-10T21:18:33.448Z,9.55
2023-05-10T21:21:01.555Z,9.52
2023-05-10T21:23:29.499Z,9.49
2023-05-10T21:25:57.433Z,9.45
2023-05-10T21:28:25.667Z,9.42
2023-05-10T21:30:53.687Z,9.40
2023-05-10T21:33:21.931Z,9.38
2023-05-10T21:35:50.036Z,9.35
2023-05-10T21:38:19.857Z,9.34
2023-05-10T21:40:47.817Z,9.35
2023-05-10T21:43:15.720Z,9.34
2023-05-10T21:45:43.630Z,9.34
2023-05-10T21:48:11.637Z,9.32
2023-05-10T21:50:39.641Z,9.29
2023-05-10T21:53:07.585Z,9.21
2023-05-10T21:55:35.817Z,9.14
2023-05-10T21:58:03.733Z,9.12
2023-05-10T22:00:32.855Z,9.10
2023-05-10T22:03:02.158Z,9.07
2023-05-10T22:05:31.420Z,9.06
2023-05-10T22:07:59.684Z,9.04
2023-05-10T22:10:29.467Z,9.02
2023-05-10T22:12:57.403Z,8.98
2023-05-10T22:15:25.260Z,8.96
2023-05-10T22:17:53.160Z,8.95
2023-05-10T22:20:21.238Z,8.95
2023-05-10T22:22:49.336Z,8.93
2023-05-10T22:25:17.308Z,8.93
2023-05-10T22:27:45.238Z,8.91
2023-05-10T22:30:13.176Z,8.91
2023-05-10T22:32:42.321Z,8.93
2023-05-10T22:35:10.234Z,8.95
2023-05-10T22:37:38.216Z,8.95
2023-05-10T22:40:08.444Z,8.96
2023-05-10T22:42:36.281Z,8.97
2023-05-10T22:45:04.828Z,8.97
2023-05-10T22:47:33.671Z,8.96
2023-05-10T22:50:03.686Z,8.94
2023-05-10T22:52:32.088Z,8.90
2023-05-10T22:54:59.990Z,8.87
2023-05-10T22:57:27.931Z,8.84
2023-05-10T22:59:55.790Z,8.81
2023-05-10T23:02:23.749Z,8.78
2023-05-10T23:04:51.867Z,8.75
2023-05-10T23:07:20.071Z,8.70
2023-05-10T23:09:48.893Z,8.64
2023-05-10T23:12:17.120Z,8.60
2023-05-10T23:14:46.682Z,8.57
2023-05-10T23:17:14.757Z,8.54
2023-05-10T23:19:43.307Z,8.52
2023-05-10T23:22:11.248Z,8.49
2023-05-10T23:24:39.400Z,8.46
2023-05-10T23:27:07.533Z,8.40
2023-05-10T23:29:35.428Z,8.37
2023-05-10T23:32:03.344Z,8.31
2023-05-10T23:34:31.335Z,8.27
2023-05-10T23:36:59.333Z,8.21
2023-05-10T23:39:27.297Z,8.16
2023-05-10T23:41:55.680Z,8.11
2023-05-10T23:44:23.700Z,8.07
2023-05-10T23:46:51.726Z,8.02
2023-05-10T23:49:19.798Z,7.98
2023-05-10T23:51:47.745Z,7.96
2023-05-10T23:54:15.668Z,7.91
2023-05-10T23:56:43.498Z,7.83
2023-05-10T23:59:11.512Z,7.80
